createdAt,value
2022-12-31T00:02:01.744Z,49.40
2022-12-31T00:04:34.199Z,48.50
2022-12-31T00:07:06.871Z,51.50
2022-12-31T00:09:39.424Z,59.90
2022-12-31T00:12:11.935Z,62.30
2022-12-31T00:14:44.689Z,66.50
2022-12-31T00:17:17.418Z,66.70
2022-12-31T00:19:50.164Z,68.90
2022-12-31T00:22:22.621Z,64.50
2022-12-31T00:24:55.086Z,63.50
2022-12-31T00:27:27.748Z,58.50
2022-12-31T00:30:04.516Z,58.50
2022-12-31T00:32:39.803Z,58.00
2022-12-31T00:35:12.491Z,52.80
2022-12-31T00:37:45.117Z,59.00
2022-12-31T00:40:17.815Z,57.50
2022-12-31T00:42:50.388Z,64.70
2022-12-31T00:45:22.972Z,65.50
2022-12-31T00:47:55.452Z,65.40
2022-12-31T00:50:28.137Z,63.80
2022-12-31T00:53:01.195Z,67.00
2022-12-31T00:55:34.105Z,66.90
2022-12-31T00:58:06.988Z,66.40
2022-12-31T01:00:41.016Z,66.20
2022-12-31T01:03:13.804Z,67.70
2022-12-31T01:05:46.693Z,59.00
2022-12-31T01:08:20.027Z,54.40
2022-12-31T01:11:11.559Z,51.10
2022-12-31T01:13:44.979Z,48.00
2022-12-31T01:16:18.391Z,46.30
2022-12-31T01:18:51.371Z,46.60
2022-12-31T01:21:24.738Z,45.40
2022-12-31T01:23:57.631Z,50.50
2022-12-31T01:26:30.570Z,50.20
2022-12-31T01:29:03.161Z,50.70
2022-12-31T01:31:37.066Z,48.80
2022-12-31T01:34:10.425Z,48.10
2022-12-31T01:36:43.296Z,48.00
2022-12-31T01:39:16.440Z,47.30
2022-12-31T01:41:49.745Z,47.20
2022-12-31T01:44:31.351Z,47.50
2022-12-31T01:47:06.115Z,44.30
2022-12-31T01:49:52.737Z,40.50
2022-12-31T01:52:30.290Z,39.50
2022-12-31T01:55:18.109Z,38.70
2022-12-31T01:57:56.515Z,36.50
2022-12-31T02:00:29.270Z,35.30
2022-12-31T02:03:02.585Z,36.90
2022-12-31T02:05:52.470Z,36.80
2022-12-31T02:08:25.794Z,36.00
2022-12-31T02:10:58.951Z,39.30
2022-12-31T02:13:32.092Z,41.30
2022-12-31T02:16:19.486Z,43.00
2022-12-31T02:19:20.003Z,43.10
2022-12-31T02:22:19.555Z,42.70
2022-12-31T02:25:26.367Z,42.70
2022-12-31T02:28:14.881Z,43.40
2022-12-31T02:30:52.204Z,42.30
2022-12-31T02:33:41.095Z,40.60
2022-12-31T02:36:26.095Z,35.10
2022-12-31T02:39:00.522Z,34.60
2022-12-31T02:41:51.986Z,34.80
2022-12-31T02:44:30.659Z,32.30
2022-12-31T02:47:12.359Z,32.40
2022-12-31T02:49:56.248Z,34.00
2022-12-31T02:52:31.117Z,32.60
2022-12-31T02:55:09.614Z,32.40
2022-12-31T02:58:13.329Z,32.40
2022-12-31T03:01:14.721Z,34.90
2022-12-31T03:03:47.838Z,39.00
2022-12-31T03:06:20.530Z,40.00
2022-12-31T03:09:14.984Z,39.80
2022-12-31T03:12:07.107Z,39.40
2022-12-31T03:14:39.896Z,38.70
2022-12-31T03:17:12.820Z,39.60
2022-12-31T03:20:03.669Z,37.20
2022-12-31T03:22:38.826Z,38.80
2022-12-31T03:25:33.797Z,36.30
2022-12-31T03:28:15.560Z,33.40
2022-12-31T03:30:51.981Z,34.00
2022-12-31T03:33:25.244Z,33.70
2022-12-31T03:35:58.190Z,32.00
2022-12-31T03:38:30.877Z,31.80
2022-12-31T03:41:04.369Z,31.50
2022-12-31T03:43:37.121Z,31.10
2022-12-31T03:46:10.231Z,31.50
2022-12-31T03:48:43.319Z,32.70
2022-12-31T03:51:17.195Z,34.40
2022-12-31T03:53:50.401Z,35.80
2022-12-31T03:56:23.190Z,36.50
2022-12-31T03:58:55.900Z,37.90
2022-12-31T04:01:28.949Z,37.90
2022-12-31T04:04:02.461Z,36.70
2022-12-31T04:06:35.111Z,35.40
2022-12-31T04:09:07.974Z,34.40
2022-12-31T04:11:40.761Z,36.10
2022-12-31T04:14:13.870Z,32.90
2022-12-31T04:16:47.311Z,29.50
2022-12-31T04:19:20.234Z,31.60
2022-12-31T04:21:52.987Z,29.80
2022-12-31T04:24:26.083Z,30.30
2022-12-31T04:27:05.347Z,30.60
2022-12-31T04:29:41.883Z,29.50
2022-12-31T04:32:15.050Z,31.30
2022-12-31T04:34:48.221Z,29.10
2022-12-31T04:37:20.819Z,32.90
2022-12-31T04:39:53.578Z,31.60
2022-12-31T04:42:26.188Z,32.30
2022-12-31T04:44:59.240Z,29.10
2022-12-31T04:47:32.385Z,30.20
2022-12-31T04:50:05.533Z,32.20
2022-12-31T04:52:42.648Z,32.90
2022-12-31T04:55:17.791Z,33.20
2022-12-31T04:57:51.297Z,34.30
2022-12-31T05:00:24.987Z,34.80
2022-12-31T05:02:58.130Z,31.80
2022-12-31T05:05:31.373Z,33.40
2022-12-31T05:08:04.329Z,33.70
2022-12-31T05:10:37.437Z,33.50
2022-12-31T05:13:10.547Z,33.30
2022-12-31T05:15:43.960Z,32.80
2022-12-31T05:18:17.272Z,30.70
2022-12-31T05:20:50.654Z,31.10
2022-12-31T05:23:23.819Z,27.40
2022-12-31T05:25:56.671Z,27.30
2022-12-31T05:28:29.631Z,27.10
2022-12-31T05:31:03.016Z,27.10
2022-12-31T05:33:35.965Z,27.00
2022-12-31T05:36:09.432Z,25.70
2022-12-31T05:38:42.500Z,30.00
2022-12-31T05:41:15.386Z,28.90
2022-12-31T05:43:48.309Z,32.00
2022-12-31T05:46:21.469Z,32.00
2022-12-31T05:48:54.342Z,34.00
2022-12-31T05:51:27.310Z,40.00
2022-12-31T05:54:00.447Z,52.60
2022-12-31T05:56:33.425Z,55.80
2022-12-31T05:59:06.520Z,54.50
2022-12-31T06:01:39.874Z,52.90
2022-12-31T06:04:13.249Z,46.60
2022-12-31T06:06:46.596Z,44.40
2022-12-31T06:09:20.602Z,41.60
2022-12-31T06:11:53.898Z,41.80
2022-12-31T06:14:27.146Z,45.10
2022-12-31T06:17:00.468Z,49.30
2022-12-31T06:19:33.801Z,46.20
2022-12-31T06:22:07.451Z,46.80
2022-12-31T06:24:40.092Z,54.00
2022-12-31T06:27:12.879Z,56.30
2022-12-31T06:29:46.094Z,52.70
2022-12-31T06:32:19.153Z,58.70
2022-12-31T06:34:51.748Z,52.10
2022-12-31T06:37:24.635Z,45.30
2022-12-31T06:39:57.263Z,43.00
2022-12-31T06:42:33.656Z,43.90
2022-12-31T06:45:06.336Z,41.20
2022-12-31T06:47:39.227Z,42.50
2022-12-31T06:50:12.184Z,41.60
2022-12-31T06:52:46.322Z,39.70
2022-12-31T06:55:20.268Z,32.20
2022-12-31T06:57:53.725Z,29.50
2022-12-31T07:00:27.176Z,34.90
2022-12-31T07:03:17.382Z,34.30
2022-12-31T07:05:59.218Z,34.40
2022-12-31T07:09:01.108Z,34.30
2022-12-31T07:12:04.093Z,34.40
2022-12-31T07:14:51.404Z,36.60
2022-12-31T07:17:48.184Z,38.90
2022-12-31T07:20:22.768Z,44.70
2022-12-31T07:22:55.951Z,45.90
2022-12-31T07:25:30.842Z,43.20
2022-12-31T07:28:26.925Z,39.90
2022-12-31T07:31:18.074Z,40.10
2022-12-31T07:34:09.141Z,35.20
2022-12-31T07:36:50.093Z,34.40
2022-12-31T07:39:44.680Z,31.60
2022-12-31T07:42:26.061Z,30.50
2022-12-31T07:45:17.397Z,31.70
2022-12-31T07:47:53.562Z,32.20
2022-12-31T07:50:28.922Z,33.60
2022-12-31T07:53:02.318Z,30.00
2022-12-31T07:55:35.811Z,32.30
2022-12-31T07:58:44.663Z,32.20
2022-12-31T08:01:30.183Z,39.10
2022-12-31T08:04:08.952Z,46.70
2022-12-31T08:07:19.267Z,52.50
2022-12-31T08:10:17.668Z,51.80
2022-12-31T08:12:57.656Z,54.10
2022-12-31T08:15:30.916Z,52.50
2022-12-31T08:18:03.929Z,50.60
2022-12-31T08:20:55.047Z,47.60
2022-12-31T08:23:53.738Z,44.30
2022-12-31T08:27:11.863Z,37.50
2022-12-31T08:29:51.757Z,33.10
2022-12-31T08:32:49.328Z,34.50
2022-12-31T08:36:07.102Z,32.00
2022-12-31T08:39:07.961Z,32.50
2022-12-31T08:41:49.125Z,33.80
2022-12-31T08:44:39.754Z,33.20
2022-12-31T08:47:46.359Z,38.80
2022-12-31T08:50:20.831Z,34.80
2022-12-31T08:52:54.136Z,33.20
2022-12-31T08:55:28.498Z,32.20
2022-12-31T08:58:06.675Z,31.80
2022-12-31T09:00:41.176Z,34.00
2022-12-31T09:03:31.348Z,37.40
2022-12-31T09:06:29.842Z,39.30
2022-12-31T09:09:09.696Z,42.60
2022-12-31T09:12:11.549Z,41.40
2022-12-31T09:14:47.673Z,40.90
2022-12-31T09:17:28.722Z,39.60
2022-12-31T09:20:01.968Z,35.70
2022-12-31T09:22:35.307Z,34.80
2022-12-31T09:25:08.754Z,37.30
2022-12-31T09:27:56.001Z,36.20
2022-12-31T09:30:30.364Z,36.30
2022-12-31T09:33:07.882Z,36.60
2022-12-31T09:35:58.540Z,35.90
2022-12-31T09:38:43.685Z,35.20
2022-12-31T09:41:28.505Z,38.30
2022-12-31T09:44:22.373Z,37.00
2022-12-31T09:47:30.266Z,35.20
2022-12-31T09:50:22.961Z,33.80
2022-12-31T09:53:19.498Z,32.50
2022-12-31T09:56:04.441Z,36.80
2022-12-31T09:58:54.229Z,35.30
2022-12-31T10:01:40.471Z,33.60
2022-12-31T10:04:19.046Z,33.70
2022-12-31T10:07:14.383Z,30.30
2022-12-31T10:09:55.812Z,32.40
2022-12-31T10:15:36.167Z,27.00
2022-12-31T10:18:20.485Z,25.90
2022-12-31T10:21:18.988Z,29.00
2022-12-31T10:23:54.189Z,27.90
2022-12-31T10:26:54.578Z,29.40
2022-12-31T10:29:29.802Z,28.40
2022-12-31T10:32:02.501Z,28.90
2022-12-31T10:34:41.527Z,29.40
2022-12-31T10:37:21.664Z,28.50
2022-12-31T10:40:18.916Z,30.70
2022-12-31T10:43:38.848Z,31.20
2022-12-31T10:46:11.300Z,30.70
2022-12-31T10:48:49.673Z,27.20
2022-12-31T10:51:42.479Z,27.10
2022-12-31T10:54:35.239Z,27.50
2022-12-31T10:57:19.591Z,27.80
2022-12-31T11:00:17.015Z,27.70
2022-12-31T11:02:54.628Z,27.70
2022-12-31T11:05:58.119Z,26.10
2022-12-31T11:08:49.485Z,26.30
2022-12-31T11:11:56.098Z,27.40
2022-12-31T11:14:47.079Z,27.60
2022-12-31T11:17:22.455Z,27.50
2022-12-31T11:20:39.974Z,28.20
2022-12-31T11:23:41.844Z,27.80
2022-12-31T11:26:41.937Z,28.10
2022-12-31T11:29:41.500Z,25.50
2022-12-31T11:32:29.281Z,27.30
2022-12-31T11:35:22.720Z,26.60
2022-12-31T11:38:17.715Z,28.80
2022-12-31T11:41:21.376Z,28.20
2022-12-31T11:43:59.732Z,28.70
2022-12-31T11:47:04.805Z,28.90
2022-12-31T11:50:01.269Z,27.70
2022-12-31T11:52:51.827Z,29.30
2022-12-31T11:55:53.455Z,25.80
2022-12-31T11:58:29.197Z,26.30
2022-12-31T12:01:16.266Z,27.90
2022-12-31T12:03:50.188Z,25.30
2022-12-31T12:06:29.361Z,26.30
2022-12-31T12:09:20.873Z,26.40
2022-12-31T12:12:02.553Z,29.40
2022-12-31T12:14:39.274Z,28.90
2022-12-31T12:17:18.731Z,29.20
2022-12-31T12:19:57.293Z,27.10
2022-12-31T12:22:31.950Z,27.10
2022-12-31T12:25:18.537Z,27.50
2022-12-31T12:27:51.966Z,26.70
2022-12-31T12:30:27.751Z,27.10
2022-12-31T12:33:05.270Z,26.90
2022-12-31T12:35:39.900Z,25.90
2022-12-31T12:38:42.495Z,27.80
2022-12-31T12:41:28.666Z,28.30
2022-12-31T12:44:17.324Z,27.80
2022-12-31T12:46:51.829Z,28.00
2022-12-31T12:49:29.697Z,27.40
2022-12-31T12:52:24.334Z,26.70
2022-12-31T12:55:36.042Z,25.60
2022-12-31T12:58:28.881Z,26.60
2022-12-31T13:01:21.487Z,26.30
2022-12-31T13:04:34.978Z,25.60
2022-12-31T13:07:37.138Z,25.20
2022-12-31T13:10:21.651Z,27.60
2022-12-31T13:13:26.084Z,25.70
2022-12-31T13:16:19.202Z,26.70
2022-12-31T13:19:00.784Z,24.50
2022-12-31T13:21:56.062Z,24.70
2022-12-31T13:24:34.240Z,26.80
2022-12-31T13:27:29.878Z,25.10
2022-12-31T13:30:08.533Z,26.10
2022-12-31T13:32:48.152Z,27.60
2022-12-31T13:35:36.617Z,26.30
2022-12-31T13:38:24.816Z,27.30
2022-12-31T13:41:11.314Z,28.50
2022-12-31T13:44:15.797Z,29.00
2022-12-31T13:47:04.610Z,29.50
2022-12-31T13:49:47.082Z,28.60
2022-12-31T13:52:29.730Z,31.00
2022-12-31T13:55:21.623Z,30.40
2022-12-31T13:57:59.228Z,30.30
2022-12-31T14:00:49.677Z,32.30
2022-12-31T14:03:41.231Z,33.40
2022-12-31T14:06:27.671Z,31.90
2022-12-31T14:09:01.171Z,31.90
2022-12-31T14:11:56.851Z,30.50
2022-12-31T14:14:43.857Z,27.00
2022-12-31T14:17:39.598Z,25.70
2022-12-31T14:20:47.995Z,28.80
2022-12-31T14:23:49.675Z,32.20
2022-12-31T14:26:27.928Z,27.90
2022-12-31T14:29:16.302Z,27.20
2022-12-31T14:31:52.283Z,26.40
2022-12-31T14:34:52.503Z,26.30
2022-12-31T14:37:43.274Z,26.20
2022-12-31T14:40:56.977Z,27.30
2022-12-31T14:44:06.295Z,28.60
2022-12-31T14:47:06.000Z,30.20
2022-12-31T14:49:58.983Z,29.80
2022-12-31T14:52:36.410Z,30.30
2022-12-31T14:55:24.527Z,28.40
2022-12-31T14:58:26.966Z,24.70
2022-12-31T15:01:20.274Z,27.40
2022-12-31T15:03:53.096Z,28.60
2022-12-31T15:06:52.589Z,29.30
2022-12-31T15:09:46.578Z,29.80
2022-12-31T15:12:40.018Z,29.10
2022-12-31T15:15:26.754Z,26.60
2022-12-31T15:18:16.857Z,29.00
2022-12-31T15:21:09.154Z,33.20
2022-12-31T15:23:44.338Z,32.10
2022-12-31T15:26:32.030Z,26.90
2022-12-31T15:29:08.478Z,29.50
2022-12-31T15:31:49.262Z,28.30
2022-12-31T15:34:36.354Z,28.20
2022-12-31T15:37:31.403Z,26.30
2022-12-31T15:40:30.169Z,29.50
2022-12-31T15:43:14.199Z,30.20
2022-12-31T15:45:48.807Z,26.20
2022-12-31T15:48:43.705Z,27.50
2022-12-31T15:51:26.344Z,27.20
2022-12-31T15:54:01.495Z,29.50
2022-12-31T15:56:38.952Z,27.40
2022-12-31T15:59:18.283Z,27.40
2022-12-31T16:01:52.015Z,29.10
2022-12-31T16:04:28.285Z,28.20
2022-12-31T16:07:05.768Z,28.20
2022-12-31T16:09:39.240Z,26.80
2022-12-31T16:12:25.400Z,28.90
2022-12-31T16:15:04.351Z,30.00
2022-12-31T16:17:40.393Z,27.70
2022-12-31T16:20:30.844Z,28.00
2022-12-31T16:23:19.908Z,25.80
2022-12-31T16:25:55.267Z,27.30
2022-12-31T16:28:35.260Z,27.30
2022-12-31T16:31:10.462Z,26.40
2022-12-31T16:33:43.717Z,26.90
2022-12-31T16:36:24.306Z,27.40
2022-12-31T16:39:15.832Z,28.60
2022-12-31T16:41:48.702Z,29.70
2022-12-31T16:44:32.306Z,29.40
2022-12-31T16:47:07.986Z,28.90
2022-12-31T16:49:44.104Z,29.40
2022-12-31T16:52:51.642Z,30.20
2022-12-31T16:55:30.739Z,29.80
2022-12-31T16:58:21.686Z,21.40
2022-12-31T17:00:55.267Z,30.10
2022-12-31T17:03:30.643Z,25.20
2022-12-31T17:06:23.105Z,31.50
2022-12-31T17:09:14.478Z,34.30
2022-12-31T17:11:50.877Z,31.10
2022-12-31T17:14:29.252Z,30.40
2022-12-31T17:17:07.996Z,30.00
2022-12-31T17:19:46.010Z,29.50
2022-12-31T17:22:34.579Z,30.90
2022-12-31T17:25:34.897Z,26.90
2022-12-31T17:28:23.251Z,29.10
2022-12-31T17:31:00.609Z,33.10
2022-12-31T17:33:34.815Z,32.50
2022-12-31T17:36:27.424Z,29.50
2022-12-31T17:39:21.258Z,36.10
2022-12-31T17:41:57.923Z,33.70
2022-12-31T17:44:31.459Z,37.70
2022-12-31T17:47:06.540Z,41.90
2022-12-31T17:49:39.704Z,44.10
2022-12-31T17:52:16.915Z,45.00
2022-12-31T17:54:50.251Z,43.80
2022-12-31T17:57:29.251Z,39.00
2022-12-31T18:00:02.331Z,37.70
2022-12-31T18:02:46.682Z,32.20
2022-12-31T18:05:22.719Z,31.50
2022-12-31T18:07:56.462Z,32.50
2022-12-31T18:10:31.955Z,31.40
2022-12-31T18:13:10.553Z,30.70
2022-12-31T18:15:43.493Z,29.40
2022-12-31T18:18:33.199Z,32.30
2022-12-31T18:21:36.657Z,31.40
2022-12-31T18:24:15.598Z,30.00
2022-12-31T18:26:48.851Z,34.20
2022-12-31T18:29:22.104Z,38.60
2022-12-31T18:31:56.512Z,47.00
2022-12-31T18:34:29.535Z,41.20
2022-12-31T18:37:02.898Z,34.90
2022-12-31T18:39:35.601Z,31.40
2022-12-31T18:42:08.251Z,31.90
2022-12-31T18:44:41.227Z,30.60
2022-12-31T18:47:19.178Z,30.10
2022-12-31T18:49:53.129Z,34.80
2022-12-31T18:52:26.007Z,37.90
2022-12-31T18:54:58.858Z,38.90
2022-12-31T18:57:31.903Z,39.60
2022-12-31T19:00:04.795Z,39.60
2022-12-31T19:02:37.625Z,37.70
2022-12-31T19:05:27.898Z,37.60
2022-12-31T19:08:01.328Z,35.20
2022-12-31T19:10:35.578Z,32.60
2022-12-31T19:13:08.475Z,26.40
2022-12-31T19:15:49.742Z,29.00
2022-12-31T19:18:22.722Z,30.00
2022-12-31T19:20:56.045Z,30.20
2022-12-31T19:23:29.114Z,30.30
2022-12-31T19:26:02.072Z,32.70
2022-12-31T19:28:35.166Z,32.70
2022-12-31T19:31:08.345Z,34.10
2022-12-31T19:33:41.678Z,31.90
2022-12-31T19:36:26.388Z,33.20
2022-12-31T19:38:59.215Z,32.10
2022-12-31T19:41:32.312Z,31.80
2022-12-31T19:44:05.563Z,17.70
2022-12-31T19:46:38.471Z,20.80
2022-12-31T19:49:14.040Z,31.20
2022-12-31T19:51:47.099Z,30.70
2022-12-31T19:54:20.153Z,29.20
2022-12-31T19:56:53.350Z,31.60
2022-12-31T19:59:26.950Z,30.40
2022-12-31T20:02:01.116Z,29.30
2022-12-31T20:04:34.074Z,33.30
2022-12-31T20:07:07.019Z,33.20
2022-12-31T20:09:39.925Z,32.20
2022-12-31T20:12:13.051Z,25.00
2022-12-31T20:14:46.160Z,25.40
2022-12-31T20:17:19.502Z,28.20
2022-12-31T20:19:52.786Z,29.30
2022-12-31T20:22:25.505Z,26.70
2022-12-31T20:24:58.635Z,29.40
2022-12-31T20:27:31.609Z,35.00
2022-12-31T20:30:04.458Z,33.80
2022-12-31T20:32:37.645Z,35.30
2022-12-31T20:35:10.793Z,35.60
2022-12-31T20:37:44.002Z,28.70
2022-12-31T20:40:17.444Z,33.50
2022-12-31T20:42:50.455Z,35.30
2022-12-31T20:45:23.464Z,32.50
2022-12-31T20:47:56.915Z,30.20
2022-12-31T20:50:30.251Z,30.00
2022-12-31T20:53:03.175Z,30.20
2022-12-31T20:55:38.612Z,31.80
2022-12-31T20:58:11.146Z,30.30
2022-12-31T21:00:43.833Z,31.80
2022-12-31T21:03:53.531Z,34.10
2022-12-31T21:06:13.651Z,34.40
2022-12-31T21:08:46.806Z,37.30
2022-12-31T21:11:37.951Z,37.30
2022-12-31T21:14:10.664Z,34.90
2022-12-31T21:16:43.276Z,36.90
2022-12-31T21:19:15.826Z,37.70
2022-12-31T21:21:48.700Z,38.20
2022-12-31T21:24:24.095Z,36.80
2022-12-31T21:27:00.294Z,33.20
2022-12-31T21:29:34.891Z,31.60
2022-12-31T21:32:08.625Z,31.10
2022-12-31T21:34:41.419Z,30.40
2022-12-31T21:37:14.221Z,29.60
2022-12-31T21:39:46.836Z,29.90
2022-12-31T21:42:19.672Z,31.10
2022-12-31T21:44:52.952Z,31.10
2022-12-31T21:47:47.606Z,36.20
2022-12-31T21:50:21.170Z,36.00
2022-12-31T21:52:53.687Z,38.20
2022-12-31T21:55:44.985Z,41.70
2022-12-31T21:58:27.535Z,40.40
2022-12-31T22:01:21.462Z,40.80
2022-12-31T22:03:54.328Z,44.10
2022-12-31T22:06:27.678Z,46.50
2022-12-31T22:09:00.548Z,38.40
2022-12-31T22:11:33.954Z,35.20
2022-12-31T22:14:07.043Z,37.90
2022-12-31T22:16:40.253Z,39.00
2022-12-31T22:19:13.379Z,31.80
2022-12-31T22:21:46.546Z,32.10
2022-12-31T22:24:19.492Z,32.10
2022-12-31T22:26:54.506Z,31.20
2022-12-31T22:29:27.477Z,34.20
2022-12-31T22:32:01.434Z,32.90
2022-12-31T22:34:34.483Z,38.20
2022-12-31T22:37:27.569Z,38.10
2022-12-31T22:40:01.992Z,40.90
2022-12-31T22:42:35.100Z,41.80
2022-12-31T22:45:08.993Z,42.80
2022-12-31T22:47:42.245Z,44.60
2022-12-31T22:50:15.140Z,44.40
2022-12-31T22:52:48.098Z,42.70
2022-12-31T22:55:21.271Z,44.10
2022-12-31T22:57:54.706Z,35.50
2022-12-31T23:00:41.434Z,36.40
2022-12-31T23:03:14.785Z,35.10
2022-12-31T23:05:51.909Z,34.10
2022-12-31T23:08:25.325Z,33.20
2022-12-31T23:11:00.905Z,33.50
2022-12-31T23:13:57.954Z,32.80
2022-12-31T23:16:50.846Z,33.50
2022-12-31T23:19:42.263Z,32.00
2022-12-31T23:22:33.039Z,34.30
2022-12-31T23:25:05.826Z,37.00
2022-12-31T23:27:38.804Z,37.40
2022-12-31T23:30:12.196Z,37.10
2022-12-31T23:32:44.812Z,40.40
2022-12-31T23:35:18.224Z,39.90
2022-12-31T23:37:50.908Z,38.90
2022-12-31T23:40:24.215Z,35.20
2022-12-31T23:42:57.067Z,34.40
2022-12-31T23:45:33.251Z,33.00
2022-12-31T23:48:06.689Z,31.60
2022-12-31T23:50:41.771Z,31.90
2022-12-31T23:53:14.345Z,31.80
2022-12-31T23:55:47.070Z,34.60
2022-12-31T23:58:20.075Z,35.40
